createdAt,value
2018-12-09T00:00:07.747Z,2.95
2018-12-09T00:02:36.915Z,3.90
2018-12-09T00:05:06.840Z,3.95
2018-12-09T00:07:36.315Z,4.00
2018-12-09T00:10:05.973Z,4.47
2018-12-09T00:12:35.590Z,3.22
2018-12-09T00:15:05.105Z,3.40
2018-12-09T00:17:34.260Z,4.65
2018-12-09T00:20:03.654Z,4.92
2018-12-09T00:22:33.075Z,3.87
2018-12-09T00:25:02.583Z,2.45
2018-12-09T00:27:31.651Z,3.00
2018-12-09T00:30:00.905Z,3.70
2018-12-09T00:32:30.303Z,2.35
2018-12-09T00:34:59.700Z,2.87
2018-12-09T00:37:28.877Z,2.65
2018-12-09T00:39:58.275Z,3.37
2018-12-09T00:42:27.540Z,2.60
2018-12-09T00:44:56.643Z,2.30
2018-12-09T00:47:26.103Z,1.95
2018-12-09T00:49:55.499Z,1.40
2018-12-09T00:52:24.634Z,2.12
2018-12-09T00:54:53.955Z,1.75
2018-12-09T00:57:23.226Z,1.85
2018-12-09T00:59:52.381Z,2.65
2018-12-09T01:02:21.779Z,2.20
2018-12-09T01:04:50.822Z,1.95
2018-12-09T01:07:20.226Z,1.30
2018-12-09T01:09:49.395Z,2.22
2018-12-09T01:12:18.625Z,3.20
2018-12-09T01:14:47.943Z,2.87
2018-12-09T01:17:17.020Z,1.87
2018-12-09T01:19:46.283Z,2.83
2018-12-09T01:22:15.678Z,2.37
2018-12-09T01:24:44.915Z,1.60
2018-12-09T01:27:14.471Z,3.50
2018-12-09T01:29:43.868Z,2.92
2018-12-09T01:32:12.786Z,2.98
2018-12-09T01:34:42.342Z,2.52
2018-12-09T01:37:11.943Z,2.45
2018-12-09T01:39:40.914Z,2.20
2018-12-09T01:42:10.392Z,2.37
2018-12-09T01:44:40.023Z,4.10
2018-12-09T01:47:09.303Z,4.22
2018-12-09T01:49:38.580Z,3.30
2018-12-09T01:52:07.791Z,3.05
2018-12-09T01:54:37.497Z,2.50
2018-12-09T01:57:12.897Z,3.42
2018-12-09T01:59:42.192Z,4.20
2018-12-09T02:05:02.462Z,2.98
2018-12-09T02:07:31.617Z,2.98
2018-12-09T02:10:00.896Z,3.58
2018-12-09T02:12:30.296Z,2.70
2018-12-09T02:14:59.468Z,2.40
2018-12-09T02:17:28.617Z,2.37
2018-12-09T02:19:58.020Z,2.05
2018-12-09T02:22:27.299Z,3.10
2018-12-09T02:24:56.442Z,2.33
2018-12-09T02:27:25.613Z,3.40
2018-12-09T02:29:55.493Z,4.92
2018-12-09T02:32:24.663Z,4.90
2018-12-09T02:34:53.904Z,2.60
2018-12-09T02:37:22.776Z,3.15
2018-12-09T02:39:52.137Z,3.70
2018-12-09T02:42:21.541Z,4.92
2018-12-09T02:44:50.632Z,4.62
2018-12-09T02:47:19.857Z,3.35
2018-12-09T02:49:49.139Z,3.47
2018-12-09T02:52:18.526Z,3.25
2018-12-09T02:54:47.695Z,3.80
2018-12-09T02:57:16.935Z,3.40
2018-12-09T02:59:46.263Z,3.90
2018-12-09T03:02:15.656Z,4.08
2018-12-09T03:04:44.822Z,3.70
2018-12-09T03:07:14.103Z,4.30
2018-12-09T03:09:43.260Z,3.47
2018-12-09T03:12:12.702Z,4.55
2018-12-09T03:14:42.052Z,4.10
2018-12-09T03:17:11.331Z,4.05
2018-12-09T03:19:40.622Z,3.87
2018-12-09T03:22:09.692Z,4.85
2018-12-09T03:24:38.520Z,3.85
2018-12-09T03:27:07.978Z,4.40
2018-12-09T03:29:37.014Z,2.27
2018-12-09T03:32:06.413Z,3.83
2018-12-09T03:34:36.055Z,3.15
2018-12-09T03:37:05.211Z,3.90
2018-12-09T03:39:34.621Z,3.70
2018-12-09T03:42:03.569Z,3.50
2018-12-09T03:44:32.765Z,3.02
2018-12-09T03:47:01.731Z,4.83
2018-12-09T03:49:30.749Z,3.65
2018-12-09T03:51:59.984Z,3.50
2018-12-09T03:54:29.463Z,3.95
2018-12-09T03:56:58.350Z,4.65
2018-12-09T03:59:27.356Z,2.90
2018-12-09T04:01:56.449Z,3.12
2018-12-09T04:04:25.969Z,2.00
2018-12-09T04:06:55.009Z,3.50
2018-12-09T04:09:24.175Z,3.95
2018-12-09T04:11:53.340Z,3.40
2018-12-09T04:14:22.616Z,3.72
2018-12-09T04:16:51.889Z,4.70
2018-12-09T04:19:21.171Z,3.33
2018-12-09T04:21:50.450Z,3.50
2018-12-09T04:24:19.426Z,3.75
2018-12-09T04:26:48.648Z,7.35
2018-12-09T04:29:17.605Z,3.65
2018-12-09T04:31:46.855Z,3.45
2018-12-09T04:34:15.821Z,3.72
2018-12-09T04:36:45.274Z,4.60
2018-12-09T04:39:14.627Z,3.37
2018-12-09T04:41:43.865Z,3.80
2018-12-09T04:44:13.310Z,3.92
2018-12-09T04:46:42.657Z,3.77
2018-12-09T04:49:11.770Z,5.80
2018-12-09T04:51:52.386Z,3.92
2018-12-09T04:54:21.769Z,3.90
2018-12-09T04:56:51.163Z,3.77
2018-12-09T04:59:22.140Z,4.65
2018-12-09T05:01:51.299Z,3.50
2018-12-09T05:04:20.444Z,3.65
2018-12-09T05:06:49.973Z,3.10
2018-12-09T05:09:19.269Z,3.20
2018-12-09T05:11:48.524Z,3.98
2018-12-09T05:14:17.745Z,4.00
2018-12-09T05:16:47.338Z,2.85
2018-12-09T05:19:16.575Z,2.22
2018-12-09T05:21:45.972Z,2.10
2018-12-09T05:24:14.738Z,2.77
2018-12-09T05:26:44.085Z,2.35
2018-12-09T05:29:13.362Z,1.92
2018-12-09T05:31:42.918Z,2.15
2018-12-09T05:34:12.897Z,1.87
2018-12-09T05:36:41.934Z,1.92
2018-12-09T05:39:10.968Z,2.22
2018-12-09T05:41:40.046Z,2.92
2018-12-09T05:44:09.282Z,1.77
2018-12-09T05:46:38.201Z,2.50
2018-12-09T05:49:07.325Z,2.30
2018-12-09T05:51:36.160Z,1.42
2018-12-09T05:54:05.415Z,2.00
2018-12-09T05:56:34.667Z,2.20
2018-12-09T05:59:04.241Z,2.08
2018-12-09T06:01:33.294Z,2.02
2018-12-09T06:04:02.574Z,2.92
2018-12-09T06:06:32.096Z,2.77
2018-12-09T06:09:01.306Z,2.47
2018-12-09T06:11:30.517Z,2.95
2018-12-09T06:13:59.917Z,2.30
2018-12-09T06:16:29.319Z,3.00
2018-12-09T06:18:58.239Z,2.85
2018-12-09T06:21:27.533Z,5.53
2018-12-09T06:23:56.685Z,2.83
2018-12-09T06:26:32.082Z,3.60
2018-12-09T06:29:01.024Z,2.10
2018-12-09T06:31:29.919Z,2.85
2018-12-09T06:33:59.015Z,3.40
2018-12-09T06:36:28.312Z,2.47
2018-12-09T06:38:57.281Z,3.20
2018-12-09T06:41:26.437Z,3.50
2018-12-09T06:43:55.275Z,3.00
2018-12-09T06:46:24.516Z,3.55
2018-12-09T06:48:53.676Z,4.12
2018-12-09T06:51:22.658Z,3.08
2018-12-09T06:53:52.060Z,3.12
2018-12-09T06:56:21.361Z,3.37
2018-12-09T06:58:50.446Z,2.40
2018-12-09T07:01:19.839Z,2.80
2018-12-09T07:03:48.757Z,2.50
2018-12-09T07:06:24.094Z,2.10
2018-12-09T07:08:53.438Z,3.08
2018-12-09T07:11:22.581Z,2.60
2018-12-09T07:13:51.575Z,3.50
2018-12-09T07:16:21.281Z,3.02
2018-12-09T07:18:50.252Z,2.42
2018-12-09T07:21:19.474Z,1.95
2018-12-09T07:23:48.797Z,3.20
2018-12-09T07:26:19.017Z,3.58
2018-12-09T07:28:48.296Z,2.00
2018-12-09T07:31:18.287Z,3.90
2018-12-09T07:33:48.841Z,3.70
2018-12-09T07:36:18.835Z,3.05
2018-12-09T07:41:42.535Z,4.92
2018-12-09T07:44:12.156Z,3.65
2018-12-09T07:46:42.518Z,3.95
2018-12-09T07:49:11.759Z,3.50
2018-12-09T07:51:41.055Z,3.90
2018-12-09T07:54:10.117Z,3.08
2018-12-09T07:56:39.280Z,3.22
2018-12-09T07:59:10.832Z,4.22
2018-12-09T08:01:40.473Z,3.85
2018-12-09T08:04:09.693Z,4.53
2018-12-09T08:06:38.485Z,4.72
2018-12-09T08:09:11.388Z,6.53
2018-12-09T08:11:40.529Z,3.22
2018-12-09T08:14:09.653Z,3.58
2018-12-09T08:16:38.959Z,4.30
2018-12-09T08:19:08.208Z,5.15
2018-12-09T08:21:38.197Z,5.53
2018-12-09T08:24:07.349Z,5.35
2018-12-09T08:26:36.271Z,4.08
2018-12-09T08:29:05.319Z,4.45
2018-12-09T08:31:34.353Z,4.65
2018-12-09T08:34:03.392Z,5.33
2018-12-09T08:36:32.617Z,4.70
2018-12-09T08:39:01.621Z,4.65
2018-12-09T08:41:30.628Z,4.72
2018-12-09T08:43:59.500Z,1.50
2018-12-09T08:46:28.405Z,1.17
2018-12-09T08:48:57.388Z,1.05
2018-12-09T08:51:26.311Z,0.60
2018-12-09T08:53:55.109Z,1.02
2018-12-09T08:56:24.029Z,0.60
2018-12-09T08:58:53.311Z,0.95
2018-12-09T09:01:22.227Z,0.70
2018-12-09T09:03:51.739Z,0.82
2018-12-09T09:06:20.788Z,0.60
2018-12-09T09:08:49.587Z,0.50
2018-12-09T09:11:18.714Z,0.50
2018-12-09T09:13:53.132Z,0.72
2018-12-09T09:16:22.160Z,0.55
2018-12-09T09:18:51.157Z,0.72
2018-12-09T09:21:20.070Z,0.65
2018-12-09T09:23:48.987Z,0.65
2018-12-09T09:26:17.906Z,0.50
2018-12-09T09:28:46.781Z,0.50
2018-12-09T09:31:15.771Z,0.65
2018-12-09T09:33:45.011Z,0.60
2018-12-09T09:36:14.208Z,0.50
2018-12-09T09:38:43.149Z,0.65
2018-12-09T09:41:12.264Z,0.50
2018-12-09T09:43:41.427Z,0.50
2018-12-09T09:46:10.464Z,0.53
2018-12-09T09:48:39.265Z,0.62
2018-12-09T09:51:08.186Z,0.72
2018-12-09T09:53:37.465Z,0.80
2018-12-09T09:56:06.558Z,0.50
2018-12-09T09:58:35.495Z,0.62
2018-12-09T10:01:04.824Z,0.60
2018-12-09T10:03:34.231Z,0.70
2018-12-09T10:06:03.623Z,0.50
2018-12-09T10:08:32.785Z,0.70
2018-12-09T10:11:01.905Z,0.88
2018-12-09T10:13:31.103Z,0.50
2018-12-09T10:16:00.045Z,0.93
2018-12-09T10:18:29.163Z,1.15
2018-12-09T10:20:58.159Z,1.32
2018-12-09T10:23:27.143Z,0.98
2018-12-09T10:25:56.431Z,0.90
2018-12-09T10:28:25.581Z,1.05
2018-12-09T10:30:54.623Z,0.85
2018-12-09T10:33:23.797Z,1.10
2018-12-09T10:35:53.003Z,0.85
2018-12-09T10:38:22.132Z,0.90
2018-12-09T10:40:51.421Z,1.10
2018-12-09T10:43:20.859Z,1.30
2018-12-09T10:45:50.556Z,0.93
2018-12-09T10:48:19.845Z,1.25
2018-12-09T10:50:49.164Z,1.55
2018-12-09T10:53:18.860Z,1.20
2018-12-09T10:55:48.021Z,0.90
2018-12-09T10:58:17.478Z,0.75
2018-12-09T11:00:57.020Z,1.45
2018-12-09T11:03:32.117Z,1.20
2018-12-09T11:06:02.086Z,1.00
2018-12-09T11:08:31.459Z,1.10
2018-12-09T11:11:00.625Z,1.15
2018-12-09T11:13:29.836Z,1.37
2018-12-09T11:15:59.229Z,0.90
2018-12-09T11:18:28.699Z,0.95
2018-12-09T11:20:58.031Z,1.00
2018-12-09T11:23:27.500Z,1.40
2018-12-09T11:25:56.675Z,2.08
2018-12-09T11:28:26.008Z,1.87
2018-12-09T11:33:48.141Z,1.60
2018-12-09T11:36:17.796Z,1.20
2018-12-09T11:38:46.869Z,1.10
2018-12-09T11:41:16.100Z,1.40
2018-12-09T11:43:45.515Z,1.25
2018-12-09T11:46:15.017Z,1.65
2018-12-09T11:48:44.001Z,1.80
2018-12-09T11:51:13.567Z,1.00
2018-12-09T11:53:43.098Z,1.00
2018-12-09T11:56:12.741Z,1.12
2018-12-09T11:58:42.145Z,1.85
2018-12-09T12:01:11.424Z,1.35
2018-12-09T12:03:40.832Z,1.80
2018-12-09T12:06:10.135Z,1.12
2018-12-09T12:08:39.507Z,1.50
2018-12-09T12:11:09.143Z,1.40
2018-12-09T12:13:38.898Z,1.42
2018-12-09T12:16:08.363Z,1.20
2018-12-09T12:18:37.723Z,2.15
2018-12-09T12:21:07.152Z,1.25
2018-12-09T12:23:36.620Z,1.40
2018-12-09T12:26:06.053Z,1.52
2018-12-09T12:28:35.791Z,1.52
2018-12-09T12:31:05.125Z,1.75
2018-12-09T12:33:34.598Z,1.25
2018-12-09T12:36:04.079Z,2.02
2018-12-09T12:38:33.765Z,1.30
2018-12-09T12:41:02.955Z,1.50
2018-12-09T12:43:32.179Z,1.77
2018-12-09T12:46:11.251Z,1.40
2018-12-09T12:48:40.956Z,1.50
2018-12-09T12:51:10.856Z,1.35
2018-12-09T12:53:40.234Z,1.50
2018-12-09T12:56:09.983Z,1.27
2018-12-09T12:58:39.778Z,1.20
2018-12-09T13:01:09.076Z,1.90
2018-12-09T13:03:38.287Z,1.50
2018-12-09T13:06:07.816Z,1.90
2018-12-09T13:08:37.964Z,1.47
2018-12-09T13:11:07.302Z,2.00
2018-12-09T13:13:36.285Z,1.10
2018-12-09T13:16:05.283Z,2.40
2018-12-09T13:18:34.622Z,1.72
2018-12-09T13:21:03.540Z,1.65
2018-12-09T13:23:32.539Z,1.98
2018-12-09T13:26:01.837Z,1.70
2018-12-09T13:28:31.156Z,1.87
2018-12-09T13:31:00.549Z,1.65
2018-12-09T13:33:29.603Z,1.60
2018-12-09T13:35:58.989Z,1.62
2018-12-09T13:38:29.537Z,1.50
2018-12-09T13:40:58.757Z,1.57
2018-12-09T13:43:27.879Z,1.67
2018-12-09T13:45:57.019Z,1.82
2018-12-09T13:48:26.171Z,2.00
2018-12-09T13:50:55.637Z,1.57
2018-12-09T13:53:24.972Z,1.90
2018-12-09T13:55:54.856Z,1.55
2018-12-09T13:58:23.937Z,1.35
2018-12-09T14:00:53.104Z,2.30
2018-12-09T14:03:22.733Z,2.52
2018-12-09T14:05:51.904Z,2.27
2018-12-09T14:08:21.307Z,1.55
2018-12-09T14:10:50.713Z,1.60
2018-12-09T14:13:19.814Z,2.60
2018-12-09T14:15:49.150Z,2.08
2018-12-09T14:18:18.309Z,2.25
2018-12-09T14:20:47.828Z,3.05
2018-12-09T14:23:16.951Z,2.37
2018-12-09T14:25:46.217Z,3.35
2018-12-09T14:28:15.562Z,1.35
2018-12-09T14:30:44.712Z,1.55
2018-12-09T14:33:13.687Z,2.33
2018-12-09T14:35:43.093Z,1.80
2018-12-09T14:38:12.551Z,1.50
2018-12-09T14:40:41.535Z,3.02
2018-12-09T14:43:10.693Z,2.05
2018-12-09T14:45:40.041Z,1.70
2018-12-09T14:48:08.946Z,1.50
2018-12-09T14:50:38.532Z,1.40
2018-12-09T14:53:07.424Z,2.10
2018-12-09T14:55:36.370Z,1.60
2018-12-09T14:58:05.650Z,1.80
2018-12-09T15:00:34.513Z,2.10
2018-12-09T15:03:04.097Z,1.92
2018-12-09T15:05:33.627Z,1.65
2018-12-09T15:08:02.670Z,2.25
2018-12-09T15:10:31.823Z,1.82
2018-12-09T15:13:01.351Z,1.70
2018-12-09T15:15:30.626Z,2.10
2018-12-09T15:17:59.652Z,1.65
2018-12-09T15:20:29.204Z,2.65
2018-12-09T15:22:58.757Z,2.20
2018-12-09T15:25:28.008Z,1.80
2018-12-09T15:27:57.198Z,1.80
2018-12-09T15:30:26.696Z,1.37
2018-12-09T15:32:55.810Z,1.02
2018-12-09T15:35:24.970Z,1.65
2018-12-09T15:37:54.260Z,1.98
2018-12-09T15:40:23.289Z,1.98
2018-12-09T15:42:52.571Z,1.82
2018-12-09T15:45:21.847Z,1.67
2018-12-09T15:47:50.765Z,2.25
2018-12-09T15:50:19.858Z,1.70
2018-12-09T15:52:49.111Z,2.35
2018-12-09T15:55:18.193Z,1.60
2018-12-09T15:57:47.166Z,2.30
2018-12-09T16:00:16.564Z,1.80
2018-12-09T16:02:45.741Z,2.33
2018-12-09T16:05:14.642Z,1.50
2018-12-09T16:07:43.922Z,2.15
2018-12-09T16:10:12.847Z,2.55
2018-12-09T16:12:41.804Z,1.70
2018-12-09T16:15:10.391Z,1.45
2018-12-09T16:17:39.246Z,1.77
2018-12-09T16:20:08.339Z,1.62
2018-12-09T16:22:37.359Z,1.50
2018-12-09T16:25:06.494Z,1.37
2018-12-09T16:27:35.240Z,1.67
2018-12-09T16:30:04.502Z,1.20
2018-12-09T16:32:33.602Z,2.27
2018-12-09T16:35:02.522Z,1.30
2018-12-09T16:37:31.563Z,1.40
2018-12-09T16:40:00.362Z,1.30
2018-12-09T16:42:29.402Z,1.25
2018-12-09T16:44:58.443Z,1.52
2018-12-09T16:47:27.299Z,1.20
2018-12-09T16:49:56.641Z,1.55
2018-12-09T16:52:25.377Z,1.42
2018-12-09T16:54:54.455Z,1.35
2018-12-09T16:57:23.447Z,2.60
2018-12-09T16:59:52.447Z,1.82
2018-12-09T17:02:21.361Z,1.60
2018-12-09T17:04:50.523Z,1.50
2018-12-09T17:07:19.559Z,2.15
2018-12-09T17:09:48.486Z,1.62
2018-12-09T17:12:17.396Z,1.77
2018-12-09T17:14:46.439Z,1.98
2018-12-09T17:17:15.719Z,2.42
2018-12-09T17:19:44.580Z,2.45
2018-12-09T17:22:13.668Z,2.58
2018-12-09T17:24:42.478Z,2.00
2018-12-09T17:27:11.639Z,2.10
2018-12-09T17:29:40.617Z,2.50
2018-12-09T17:32:09.719Z,2.83
2018-12-09T17:34:38.424Z,2.42
2018-12-09T17:37:07.681Z,4.28
2018-12-09T17:39:36.724Z,2.75
2018-12-09T17:42:05.576Z,2.50
2018-12-09T17:44:34.576Z,3.30
2018-12-09T17:47:03.482Z,4.30
2018-12-09T17:49:32.371Z,3.25
2018-12-09T17:52:08.160Z,3.05
2018-12-09T17:54:37.010Z,2.92
2018-12-09T17:57:05.999Z,3.12
2018-12-09T17:59:34.800Z,3.15
2018-12-09T18:02:03.956Z,4.22
2018-12-09T18:04:33.051Z,2.60
2018-12-09T18:07:01.916Z,2.90
2018-12-09T18:09:31.077Z,2.55
2018-12-09T18:11:59.877Z,2.90
2018-12-09T18:14:28.620Z,3.37
2018-12-09T18:17:04.196Z,3.90
2018-12-09T18:19:34.314Z,1.92
2018-12-09T18:22:03.188Z,2.90
2018-12-09T18:24:32.156Z,3.52
2018-12-09T18:27:00.898Z,3.58
2018-12-09T18:29:30.059Z,3.20
2018-12-09T18:31:59.256Z,3.42
2018-12-09T18:34:28.268Z,3.22
2018-12-09T18:36:57.340Z,3.15
2018-12-09T18:39:26.639Z,3.58
2018-12-09T18:41:55.675Z,2.80
2018-12-09T18:44:24.598Z,2.72
2018-12-09T18:46:53.519Z,3.47
2018-12-09T18:49:22.561Z,2.72
2018-12-09T18:51:51.416Z,3.20
2018-12-09T18:54:20.383Z,4.62
2018-12-09T18:56:49.475Z,2.50
2018-12-09T18:59:18.475Z,3.10
2018-12-09T19:01:47.211Z,3.22
2018-12-09T19:04:16.075Z,2.80
2018-12-09T19:06:44.994Z,3.10
2018-12-09T19:09:14.127Z,3.85
2018-12-09T19:11:43.015Z,3.08
2018-12-09T19:14:11.907Z,2.80
2018-12-09T19:16:41.034Z,3.70
2018-12-09T19:19:09.961Z,2.70
2018-12-09T19:21:46.371Z,2.45
2018-12-09T19:24:15.345Z,3.25
2018-12-09T19:26:44.327Z,3.83
2018-12-09T19:29:13.370Z,3.47
2018-12-09T19:31:42.321Z,2.83
2018-12-09T19:34:11.313Z,3.00
2018-12-09T19:36:40.246Z,2.62
2018-12-09T19:39:09.236Z,3.85
2018-12-09T19:41:38.270Z,2.47
2018-12-09T19:44:07.383Z,3.83
2018-12-09T19:46:36.355Z,3.00
2018-12-09T19:49:05.391Z,2.60
2018-12-09T19:51:34.432Z,4.17
2018-12-09T19:54:03.602Z,3.30
2018-12-09T19:56:33.351Z,3.83
2018-12-09T19:59:02.756Z,3.25
2018-12-09T20:01:37.490Z,4.90
2018-12-09T20:04:06.770Z,2.77
2018-12-09T20:06:36.011Z,3.80
2018-12-09T20:09:06.482Z,3.77
2018-12-09T20:11:35.510Z,3.30
2018-12-09T20:14:04.673Z,4.00
2018-12-09T20:16:33.775Z,3.83
2018-12-09T20:19:02.750Z,3.55
2018-12-09T20:21:31.795Z,3.05
2018-12-09T20:24:01.164Z,3.50
2018-12-09T20:29:23.513Z,4.30
2018-12-09T20:31:52.521Z,3.25
2018-12-09T20:34:21.353Z,2.92
2018-12-09T20:36:55.556Z,2.92
2018-12-09T20:39:24.595Z,3.12
2018-12-09T20:41:53.630Z,3.52
2018-12-09T20:44:22.675Z,3.92
2018-12-09T20:46:52.191Z,4.70
2018-12-09T20:49:21.349Z,4.00
2018-12-09T20:51:50.147Z,3.92
2018-12-09T20:54:19.013Z,3.33
2018-12-09T20:56:48.016Z,3.45
2018-12-09T20:59:16.956Z,4.12
2018-12-09T21:01:45.766Z,4.22
2018-12-09T21:04:14.750Z,3.72
2018-12-09T21:06:43.792Z,3.10
2018-12-09T21:09:20.026Z,4.33
2018-12-09T21:11:48.775Z,3.62
2018-12-09T21:14:17.664Z,3.60
2018-12-09T21:16:46.427Z,3.30
2018-12-09T21:19:15.403Z,3.83
2018-12-09T21:21:44.332Z,3.45
2018-12-09T21:24:13.242Z,3.37
2018-12-09T21:26:42.228Z,4.00
2018-12-09T21:29:11.387Z,3.33
2018-12-09T21:31:40.515Z,3.67
2018-12-09T21:34:09.380Z,2.98
2018-12-09T21:36:38.266Z,4.42
2018-12-09T21:39:08.028Z,3.65
2018-12-09T21:41:37.487Z,4.45
2018-12-09T21:44:06.349Z,3.35
2018-12-09T21:46:35.147Z,3.45
2018-12-09T21:49:04.186Z,2.77
2018-12-09T21:51:33.227Z,2.95
2018-12-09T21:54:02.024Z,2.58
2018-12-09T21:56:30.945Z,3.65
2018-12-09T21:58:59.984Z,2.55
2018-12-09T22:01:29.506Z,3.12
2018-12-09T22:03:58.366Z,3.27
2018-12-09T22:06:27.469Z,3.02
2018-12-09T22:08:56.442Z,2.95
2018-12-09T22:11:25.546Z,3.17
2018-12-09T22:13:54.380Z,3.10
2018-12-09T22:16:23.476Z,2.58
2018-12-09T22:18:52.362Z,2.35
2018-12-09T22:21:21.457Z,2.87
2018-12-09T22:23:50.384Z,2.25
2018-12-09T22:26:19.306Z,3.55
2018-12-09T22:28:48.343Z,3.75
2018-12-09T22:31:17.147Z,3.15
2018-12-09T22:33:46.001Z,2.80
2018-12-09T22:36:20.322Z,3.00
2018-12-09T22:38:49.305Z,3.15
2018-12-09T22:41:18.224Z,3.27
2018-12-09T22:43:47.262Z,2.85
2018-12-09T22:46:16.061Z,2.47
2018-12-09T22:48:45.106Z,2.83
2018-12-09T22:51:14.265Z,2.90
2018-12-09T22:53:43.422Z,2.33
2018-12-09T22:56:12.223Z,3.02
2018-12-09T22:58:41.142Z,2.50
2018-12-09T23:01:19.860Z,2.00
2018-12-09T23:03:49.421Z,4.42
2018-12-09T23:06:18.222Z,2.75
2018-12-09T23:08:47.020Z,2.47
2018-12-09T23:11:15.997Z,2.80
2018-12-09T23:13:44.919Z,2.80
2018-12-09T23:16:13.781Z,2.20
2018-12-09T23:18:42.703Z,2.62
2018-12-09T23:21:11.790Z,3.08
2018-12-09T23:23:40.904Z,3.40
2018-12-09T23:26:16.419Z,2.70
2018-12-09T23:28:45.458Z,2.80
2018-12-09T23:31:14.500Z,3.05
2018-12-09T23:33:43.299Z,2.60
2018-12-09T23:36:11.981Z,2.62
2018-12-09T23:38:40.874Z,3.00
2018-12-09T23:41:09.699Z,3.85
2018-12-09T23:43:38.555Z,2.60
2018-12-09T23:46:07.657Z,3.10
2018-12-09T23:48:36.579Z,2.95
2018-12-09T23:51:05.742Z,2.55
2018-12-09T23:53:34.725Z,2.00
2018-12-09T23:56:03.392Z,2.67
2018-12-09T23:58:32.295Z,2.25
